createdAt,value
2018-01-29T00:01:07.373Z,5.20
2018-01-29T00:03:35.648Z,6.10
2018-01-29T00:06:03.809Z,5.60
2018-01-29T00:08:32.109Z,6.00
2018-01-29T00:11:02.331Z,5.83
2018-01-29T00:13:30.503Z,7.30
2018-01-29T00:15:58.676Z,7.50
2018-01-29T00:18:46.442Z,7.50
2018-01-29T00:21:14.579Z,6.50
2018-01-29T00:23:42.873Z,8.60
2018-01-29T00:26:16.936Z,6.53
2018-01-29T00:28:45.190Z,7.50
2018-01-29T00:31:14.328Z,7.67
2018-01-29T00:33:43.316Z,7.37
2018-01-29T00:36:11.725Z,8.40
2018-01-29T00:38:54.434Z,8.30
2018-01-29T00:41:22.620Z,7.50
2018-01-29T00:43:50.849Z,7.07
2018-01-29T00:46:19.164Z,8.40
2018-01-29T00:48:48.446Z,8.23
2018-01-29T00:51:16.732Z,7.90
2018-01-29T00:53:44.935Z,8.53
2018-01-29T00:56:13.083Z,6.60
2018-01-29T00:58:41.312Z,8.10
2018-01-29T01:01:16.358Z,7.23
2018-01-29T01:03:45.258Z,7.40
2018-01-29T01:06:16.510Z,8.20
2018-01-29T01:08:44.783Z,6.53
2018-01-29T01:11:13.028Z,7.80
2018-01-29T01:13:41.266Z,8.10
2018-01-29T01:16:10.550Z,7.33
2018-01-29T01:18:40.646Z,6.27
2018-01-29T01:21:08.914Z,6.33
2018-01-29T01:23:42.458Z,6.53
2018-01-29T01:26:12.640Z,6.30
2018-01-29T01:28:40.903Z,6.83
2018-01-29T01:31:10.253Z,5.97
2018-01-29T01:33:40.452Z,7.50
2018-01-29T01:36:27.654Z,6.93
2018-01-29T01:38:55.888Z,7.30
2018-01-29T01:41:26.020Z,7.13
2018-01-29T01:43:54.217Z,5.53
2018-01-29T01:46:22.433Z,7.43
2018-01-29T01:48:51.527Z,6.33
2018-01-29T01:51:25.006Z,7.67
2018-01-29T01:53:53.174Z,7.10
2018-01-29T01:56:31.459Z,6.80
2018-01-29T01:59:00.697Z,7.00
2018-01-29T02:01:28.922Z,5.83
2018-01-29T02:03:57.129Z,5.67
2018-01-29T02:06:28.679Z,5.30
2018-01-29T02:08:58.683Z,5.30
2018-01-29T02:11:28.737Z,5.57
2018-01-29T02:14:01.728Z,5.40
2018-01-29T02:16:29.973Z,4.23
2018-01-29T02:19:02.216Z,4.60
2018-01-29T02:21:31.512Z,5.40
2018-01-29T02:24:00.938Z,4.20
2018-01-29T02:26:29.145Z,5.73
2018-01-29T02:29:00.428Z,4.70
2018-01-29T02:31:45.997Z,5.50
2018-01-29T02:37:13.783Z,4.33
2018-01-29T02:39:45.730Z,4.00
2018-01-29T02:42:14.228Z,4.93
2018-01-29T02:44:43.321Z,4.47
2018-01-29T02:47:11.489Z,4.40
2018-01-29T02:49:42.791Z,5.53
2018-01-29T02:52:12.841Z,4.40
2018-01-29T02:54:41.013Z,4.80
2018-01-29T02:57:09.213Z,4.30
2018-01-29T02:59:37.587Z,4.50
2018-01-29T03:02:26.111Z,4.13
2018-01-29T03:04:55.264Z,3.43
2018-01-29T03:07:23.568Z,3.77
2018-01-29T03:09:52.737Z,4.53
2018-01-29T03:12:20.878Z,4.90
2018-01-29T03:14:52.070Z,4.37
2018-01-29T03:17:21.004Z,4.90
2018-01-29T03:19:49.234Z,6.20
2018-01-29T03:22:17.492Z,6.13
2018-01-29T03:27:48.629Z,4.90
2018-01-29T03:30:23.118Z,5.80
2018-01-29T03:32:51.292Z,4.53
2018-01-29T03:35:20.439Z,4.00
2018-01-29T03:37:48.607Z,5.23
2018-01-29T03:40:18.853Z,3.87
2018-01-29T03:46:01.721Z,3.90
2018-01-29T03:48:30.839Z,4.33
2018-01-29T03:51:00.230Z,4.00
2018-01-29T03:56:28.062Z,4.13
2018-01-29T03:58:56.252Z,4.20
2018-01-29T04:04:41.708Z,4.00
2018-01-29T04:07:11.833Z,4.67
2018-01-29T04:09:40.053Z,4.17
2018-01-29T04:12:21.619Z,3.90
2018-01-29T04:14:49.740Z,4.70
2018-01-29T04:17:17.942Z,3.90
2018-01-29T04:19:47.127Z,4.87
2018-01-29T04:22:18.862Z,4.37
2018-01-29T04:24:46.998Z,3.70
2018-01-29T04:27:15.286Z,4.10
2018-01-29T04:29:43.529Z,4.57
2018-01-29T04:32:11.884Z,3.83
2018-01-29T04:34:41.932Z,3.10
2018-01-29T04:37:10.111Z,3.60
2018-01-29T04:39:39.016Z,2.73
2018-01-29T04:42:08.889Z,3.00
2018-01-29T04:44:38.152Z,3.00
2018-01-29T04:47:08.301Z,3.20
2018-01-29T04:49:36.677Z,3.73
2018-01-29T04:52:11.550Z,2.77
2018-01-29T04:54:45.646Z,3.27
2018-01-29T04:57:19.807Z,2.80
2018-01-29T04:59:48.035Z,4.00
2018-01-29T05:02:21.828Z,2.83
2018-01-29T05:04:55.998Z,3.30
2018-01-29T05:07:41.727Z,2.70
2018-01-29T05:10:09.823Z,2.97
2018-01-29T05:12:42.223Z,3.30
2018-01-29T05:15:12.366Z,3.07
2018-01-29T05:17:45.889Z,3.40
2018-01-29T05:20:15.047Z,3.00
2018-01-29T05:22:43.184Z,3.47
2018-01-29T05:25:20.902Z,3.10
2018-01-29T05:27:55.583Z,4.40
2018-01-29T05:30:26.303Z,3.50
2018-01-29T05:32:54.477Z,4.27
2018-01-29T05:35:31.262Z,3.23
2018-01-29T05:38:07.076Z,2.80
2018-01-29T05:40:47.506Z,2.90
2018-01-29T05:43:15.750Z,3.03
2018-01-29T05:45:47.198Z,2.60
2018-01-29T05:48:15.770Z,2.27
2018-01-29T05:50:44.024Z,2.70
2018-01-29T05:53:14.978Z,3.10
2018-01-29T05:55:44.292Z,2.50
2018-01-29T05:58:13.429Z,2.10
2018-01-29T06:00:42.050Z,2.73
2018-01-29T06:03:10.252Z,2.23
2018-01-29T06:05:38.509Z,2.50
2018-01-29T06:08:16.492Z,1.93
2018-01-29T06:10:50.400Z,2.23
2018-01-29T06:13:19.625Z,2.17
2018-01-29T06:15:51.717Z,2.07
2018-01-29T06:18:19.921Z,2.57
2018-01-29T06:20:48.144Z,2.03
2018-01-29T06:23:16.374Z,1.80
2018-01-29T06:25:44.775Z,1.90
2018-01-29T06:28:13.067Z,1.80
2018-01-29T06:30:43.788Z,2.00
2018-01-29T06:33:12.075Z,2.60
2018-01-29T06:35:42.328Z,1.97
2018-01-29T06:38:10.547Z,2.20
2018-01-29T06:40:39.907Z,2.60
2018-01-29T06:43:11.797Z,2.30
2018-01-29T06:45:40.882Z,2.00
2018-01-29T06:48:09.150Z,2.13
2018-01-29T06:50:44.708Z,2.33
2018-01-29T06:53:18.573Z,2.53
2018-01-29T06:56:01.898Z,2.23
2018-01-29T06:58:32.169Z,2.10
2018-01-29T07:01:00.457Z,2.37
2018-01-29T07:03:29.744Z,2.50
2018-01-29T07:06:05.629Z,2.47
2018-01-29T07:08:35.220Z,2.63
2018-01-29T07:11:05.764Z,2.50
2018-01-29T07:13:34.489Z,1.97
2018-01-29T07:16:03.448Z,1.90
2018-01-29T07:18:33.537Z,2.23
2018-01-29T07:21:13.749Z,2.00
2018-01-29T07:23:44.079Z,2.00
2018-01-29T07:26:12.266Z,2.00
2018-01-29T07:28:40.632Z,2.27
2018-01-29T07:31:09.071Z,2.80
2018-01-29T07:33:37.576Z,2.23
2018-01-29T07:36:05.889Z,2.70
2018-01-29T07:38:35.420Z,2.77
2018-01-29T07:41:04.133Z,2.37
2018-01-29T07:43:32.631Z,2.10
2018-01-29T07:46:02.706Z,1.93
2018-01-29T07:48:34.049Z,2.30
2018-01-29T07:51:03.224Z,1.70
2018-01-29T07:53:43.135Z,1.70
2018-01-29T07:59:09.229Z,2.90
2018-01-29T08:04:49.438Z,2.10
2018-01-29T08:07:17.963Z,2.00
2018-01-29T08:15:47.488Z,1.83
2018-01-29T08:18:21.458Z,2.43
2018-01-29T08:20:54.501Z,2.27
2018-01-29T08:23:22.865Z,2.10
2018-01-29T08:25:52.388Z,2.00
2018-01-29T08:28:21.942Z,1.80
2018-01-29T08:33:48.567Z,1.57
2018-01-29T08:39:27.175Z,2.17
2018-01-29T08:41:55.823Z,2.23
2018-01-29T08:49:41.815Z,2.20
2018-01-29T08:52:12.322Z,5.03
2018-01-29T09:00:27.326Z,1.73
2018-01-29T09:09:16.973Z,2.00
2018-01-29T09:11:46.655Z,1.80
2018-01-29T09:14:18.283Z,1.80
2018-01-29T09:16:48.874Z,2.07
2018-01-29T09:19:18.287Z,2.23
2018-01-29T09:21:47.788Z,2.20
2018-01-29T09:24:16.264Z,2.63
2018-01-29T09:26:46.156Z,1.80
2018-01-29T09:29:19.554Z,2.03
2018-01-29T09:31:48.332Z,1.90
2018-01-29T09:34:17.525Z,1.83
2018-01-29T09:36:46.307Z,2.00
2018-01-29T09:39:14.680Z,1.80
2018-01-29T09:41:43.037Z,2.90
2018-01-29T09:44:12.578Z,1.60
2018-01-29T09:46:41.176Z,2.03
2018-01-29T09:49:11.815Z,1.50
2018-01-29T09:51:41.217Z,1.70
2018-01-29T09:54:10.469Z,2.20
2018-01-29T09:56:39.950Z,1.73
2018-01-29T09:59:08.593Z,2.20
2018-01-29T10:01:45.598Z,1.53
2018-01-29T10:04:14.135Z,1.47
2018-01-29T10:06:46.545Z,2.10
2018-01-29T10:12:13.589Z,1.67
2018-01-29T10:14:57.468Z,1.83
2018-01-29T10:17:26.291Z,1.67
2018-01-29T10:19:56.159Z,1.60
2018-01-29T10:22:29.723Z,1.63
2018-01-29T10:24:59.976Z,1.33
2018-01-29T10:27:30.336Z,1.37
2018-01-29T10:35:49.095Z,1.93
2018-01-29T10:38:28.775Z,1.60
2018-01-29T10:41:22.093Z,1.30
2018-01-29T10:43:50.635Z,1.97
2018-01-29T10:52:29.503Z,1.50
2018-01-29T10:55:16.065Z,2.07
2018-01-29T11:01:00.148Z,1.43
2018-01-29T11:03:50.185Z,2.00
2018-01-29T11:06:22.243Z,1.60
2018-01-29T11:08:51.944Z,1.30
2018-01-29T11:18:03.957Z,1.77
2018-01-29T11:20:32.125Z,2.10
2018-01-29T11:23:01.283Z,1.30
2018-01-29T11:25:31.514Z,1.30
2018-01-29T11:28:00.407Z,1.50
2018-01-29T11:30:28.539Z,1.17
2018-01-29T11:32:56.787Z,1.30
2018-01-29T11:35:25.193Z,1.30
2018-01-29T11:37:54.039Z,1.33
2018-01-29T11:40:22.141Z,1.73
2018-01-29T11:42:50.306Z,1.40
2018-01-29T11:45:18.401Z,1.30
2018-01-29T11:47:46.607Z,1.50
2018-01-29T11:50:14.727Z,0.93
2018-01-29T11:52:42.880Z,1.20
2018-01-29T11:55:17.449Z,1.77
2018-01-29T11:57:45.566Z,1.63
2018-01-29T12:00:14.097Z,1.47
2018-01-29T12:02:42.196Z,1.00
2018-01-29T12:05:11.476Z,2.00
2018-01-29T12:07:39.594Z,1.10
2018-01-29T12:10:13.204Z,1.50
2018-01-29T12:12:41.290Z,1.70
2018-01-29T12:15:13.791Z,1.67
2018-01-29T12:17:41.907Z,1.37
2018-01-29T12:20:10.023Z,1.37
2018-01-29T12:22:38.136Z,1.43
2018-01-29T12:25:06.620Z,1.47
2018-01-29T12:27:35.635Z,1.53
2018-01-29T12:30:05.800Z,1.40
2018-01-29T12:32:34.018Z,1.40
2018-01-29T15:17:59.394Z,3.73
2018-01-29T15:20:31.705Z,1.20
2018-01-29T15:22:59.940Z,0.63
2018-01-29T15:25:33.586Z,0.87
2018-01-29T15:28:01.720Z,0.83
2018-01-29T15:30:29.818Z,1.13
2018-01-29T15:32:58.174Z,0.87
2018-01-29T15:35:27.291Z,0.57
2018-01-29T15:37:55.383Z,0.70
2018-01-29T15:40:23.558Z,0.80
2018-01-29T15:42:51.935Z,1.60
2018-01-29T15:45:25.543Z,0.80
2018-01-29T15:47:54.666Z,0.67
2018-01-29T15:50:23.776Z,0.80
2018-01-29T15:52:51.902Z,0.73
2018-01-29T15:55:25.010Z,0.60
2018-01-29T15:57:53.140Z,0.50
2018-01-29T16:00:23.235Z,0.80
2018-01-29T16:02:52.384Z,1.03
2018-01-29T16:05:20.492Z,0.70
2018-01-29T16:07:49.712Z,0.70
2018-01-29T16:10:19.607Z,0.77
2018-01-29T16:12:47.748Z,0.77
2018-01-29T16:15:19.826Z,1.20
2018-01-29T16:17:48.030Z,1.20
2018-01-29T16:20:16.117Z,0.93
2018-01-29T16:22:45.980Z,0.60
2018-01-29T16:25:19.946Z,0.67
2018-01-29T16:27:49.317Z,0.53
2018-01-29T16:30:17.480Z,0.70
2018-01-29T16:32:47.672Z,0.70
2018-01-29T16:35:16.685Z,0.80
2018-01-29T16:37:44.795Z,0.77
2018-01-29T16:40:14.820Z,1.30
2018-01-29T16:42:43.241Z,1.00
2018-01-29T16:45:15.288Z,0.93
2018-01-29T16:47:43.385Z,1.20
2018-01-29T16:50:14.944Z,1.30
2018-01-29T16:52:46.730Z,1.53
2018-01-29T16:55:14.819Z,1.60
2018-01-29T16:57:42.947Z,1.50
2018-01-29T17:00:12.047Z,1.77
2018-01-29T17:02:44.251Z,2.13
2018-01-29T17:05:14.426Z,1.90
2018-01-29T17:07:43.522Z,1.80
2018-01-29T17:10:11.634Z,1.20
2018-01-29T17:12:41.659Z,1.50
2018-01-29T17:15:09.775Z,1.03
2018-01-29T17:17:37.858Z,0.30
2018-01-29T17:20:06.057Z,0.20
2018-01-29T17:22:34.170Z,0.30
2018-01-29T17:25:02.236Z,0.30
2018-01-29T17:27:31.485Z,0.20
2018-01-29T17:29:59.668Z,0.30
2018-01-29T17:32:27.784Z,0.30
2018-01-29T17:34:55.888Z,0.30
2018-01-29T17:37:25.049Z,0.30
2018-01-29T17:39:53.226Z,0.20
2018-01-29T17:42:21.495Z,0.27
2018-01-29T17:44:49.548Z,0.20
2018-01-29T17:47:20.811Z,0.20
2018-01-29T17:49:49.127Z,0.20
2018-01-29T17:52:17.261Z,0.20
2018-01-29T17:54:49.226Z,0.20
2018-01-29T17:57:18.285Z,0.20
2018-01-29T17:59:47.389Z,0.20
2018-01-29T18:02:15.518Z,0.30
2018-01-29T18:04:48.464Z,0.20
2018-01-29T18:07:16.879Z,0.30
2018-01-29T18:09:47.043Z,0.20
2018-01-29T18:12:15.203Z,0.20
2018-01-29T18:14:43.291Z,0.30
2018-01-29T18:17:11.379Z,0.20
2018-01-29T18:19:39.619Z,0.20
2018-01-29T18:22:07.870Z,0.30
2018-01-29T18:24:36.062Z,0.20
2018-01-29T18:27:04.184Z,0.20
2018-01-29T18:29:32.301Z,0.20
2018-01-29T18:32:00.421Z,0.20
2018-01-29T18:34:28.504Z,0.20
2018-01-29T18:36:56.616Z,0.20
2018-01-29T18:39:24.828Z,0.30
2018-01-29T18:41:53.584Z,0.20
2018-01-29T18:44:21.751Z,0.20
2018-01-29T18:46:49.963Z,0.30
2018-01-29T18:49:18.046Z,0.20
2018-01-29T18:51:46.161Z,0.30
2018-01-29T18:54:14.268Z,0.20
2018-01-29T18:56:43.185Z,0.30
2018-01-29T18:59:11.318Z,0.27
2018-01-29T19:01:39.415Z,0.30
2018-01-29T19:04:07.688Z,0.20
2018-01-29T19:06:35.772Z,0.30
2018-01-29T19:09:03.933Z,0.30
2018-01-29T19:11:32.097Z,0.30
2018-01-29T19:14:00.224Z,0.20
2018-01-29T19:16:29.101Z,0.20
2018-01-29T19:18:57.205Z,0.30
2018-01-29T19:21:25.357Z,0.20
2018-01-29T19:23:53.555Z,0.30
2018-01-29T19:26:21.663Z,0.20
2018-01-29T19:28:49.783Z,0.20
2018-01-29T19:31:18.067Z,0.30
2018-01-29T19:33:46.310Z,0.20
2018-01-29T19:36:14.405Z,0.23
2018-01-29T19:38:42.647Z,0.30
2018-01-29T19:41:10.803Z,0.20
2018-01-29T19:43:38.933Z,0.20
2018-01-29T19:46:08.067Z,0.30
2018-01-29T19:48:36.178Z,0.30
2018-01-29T19:51:04.327Z,0.20
2018-01-29T19:53:32.411Z,0.20
2018-01-29T19:56:01.361Z,0.30
2018-01-29T19:58:30.429Z,0.20
2018-01-29T20:00:59.545Z,0.20
2018-01-29T20:03:31.945Z,0.20
2018-01-29T20:06:00.948Z,0.30
2018-01-29T20:08:29.091Z,0.20
2018-01-29T20:10:57.180Z,0.20
2018-01-29T20:13:25.363Z,0.20
2018-01-29T20:15:55.295Z,0.20
2018-01-29T20:18:24.231Z,0.20
2018-01-29T20:20:52.315Z,0.20
2018-01-29T20:23:21.360Z,0.20
2018-01-29T20:25:49.572Z,0.20
2018-01-29T20:28:17.652Z,0.20
2018-01-29T20:30:45.740Z,0.30
2018-01-29T20:33:13.889Z,0.20
2018-01-29T20:35:41.982Z,0.30
2018-01-29T20:38:10.076Z,0.30
2018-01-29T20:40:38.164Z,0.20
2018-01-29T20:43:06.296Z,0.20
2018-01-29T20:45:35.352Z,0.20
2018-01-29T20:48:08.172Z,0.30
2018-01-29T20:50:37.214Z,0.20
2018-01-29T20:53:06.308Z,0.20
2018-01-29T20:55:34.412Z,0.20
2018-01-29T20:58:02.576Z,0.20
2018-01-29T21:00:32.335Z,0.20
2018-01-29T21:06:11.832Z,0.30
2018-01-29T21:08:43.553Z,0.20
2018-01-29T21:11:19.510Z,0.20
2018-01-29T21:13:59.390Z,0.20
2018-01-29T21:16:34.310Z,0.30
2018-01-29T21:19:06.871Z,0.30
2018-01-29T21:21:38.920Z,0.20
2018-01-29T21:24:10.962Z,0.20
2018-01-29T21:26:39.365Z,0.20
2018-01-29T21:29:07.503Z,0.23
2018-01-29T21:31:35.890Z,0.30
2018-01-29T21:34:07.230Z,0.20
2018-01-29T21:36:35.352Z,0.30
2018-01-29T21:39:07.671Z,0.30
2018-01-29T21:41:39.649Z,0.20
2018-01-29T21:44:11.308Z,0.30
2018-01-29T21:46:40.408Z,0.30
2018-01-29T21:49:09.591Z,0.30
2018-01-29T21:51:37.768Z,0.30
2018-01-29T21:54:05.965Z,0.20
2018-01-29T21:56:35.262Z,0.30
2018-01-29T21:59:03.361Z,0.20
2018-01-29T22:01:33.612Z,0.30
2018-01-29T22:04:01.702Z,0.30
2018-01-29T22:06:29.820Z,0.27
2018-01-29T22:08:57.988Z,0.30
2018-01-29T22:11:26.157Z,0.23
2018-01-29T22:13:54.269Z,0.30
2018-01-29T22:16:24.440Z,0.20
2018-01-29T22:18:52.536Z,0.20
2018-01-29T22:21:20.642Z,0.20
2018-01-29T22:23:51.937Z,0.20
2018-01-29T22:26:24.743Z,0.20
2018-01-29T22:28:56.588Z,0.30
2018-01-29T22:31:31.166Z,0.20
2018-01-29T22:34:13.463Z,0.20
2018-01-29T22:36:59.863Z,0.30
2018-01-29T22:39:33.767Z,0.20
2018-01-29T22:42:01.927Z,0.20
2018-01-29T22:44:55.409Z,0.30
2018-01-29T22:50:25.113Z,0.20
2018-01-29T22:52:58.988Z,0.30
2018-01-29T22:55:27.187Z,0.27
2018-01-29T22:57:55.312Z,0.27
2018-01-29T23:00:23.476Z,0.30
2018-01-29T23:02:52.393Z,0.30
2018-01-29T23:08:31.075Z,0.30
2018-01-29T23:14:09.390Z,0.20
2018-01-29T23:16:39.389Z,0.20
2018-01-29T23:19:07.672Z,0.20
2018-01-29T23:21:36.017Z,0.30
2018-01-29T23:30:18.704Z,0.30
2018-01-29T23:32:46.808Z,0.20
2018-01-29T23:35:23.964Z,0.20
2018-01-29T23:37:52.708Z,0.20
2018-01-29T23:40:22.731Z,0.20
2018-01-29T23:42:50.910Z,0.30
2018-01-29T23:45:19.208Z,0.30
2018-01-29T23:47:48.154Z,0.20
2018-01-29T23:50:16.432Z,0.30
2018-01-29T23:52:44.510Z,0.30
2018-01-29T23:55:13.730Z,0.30
2018-01-29T23:57:42.776Z,0.20
